createdAt,value
2023-02-12T00:01:47.327Z,11.82
2023-02-12T00:04:16.951Z,13.05
2023-02-12T00:06:43.638Z,11.80
2023-02-12T00:09:10.387Z,12.20
2023-02-12T00:11:37.042Z,11.00
2023-02-12T00:14:05.683Z,11.18
2023-02-12T00:16:32.350Z,11.93
2023-02-12T00:19:05.056Z,11.10
2023-02-12T00:21:32.011Z,10.43
2023-02-12T00:24:09.261Z,12.23
2023-02-12T00:26:36.559Z,11.60
2023-02-12T00:29:05.661Z,12.43
2023-02-12T00:31:32.812Z,9.50
2023-02-12T00:34:00.979Z,10.80
2023-02-12T00:36:32.608Z,9.90
2023-02-12T00:39:02.907Z,10.25
2023-02-12T00:41:33.221Z,9.35
2023-02-12T00:44:02.393Z,9.68
2023-02-12T00:46:32.186Z,10.20
2023-02-12T00:49:09.965Z,8.13
2023-02-12T00:51:37.962Z,9.95
2023-02-12T00:54:07.135Z,7.78
2023-02-12T00:56:33.779Z,9.55
2023-02-12T00:59:03.004Z,7.72
2023-02-12T01:01:29.674Z,8.27
2023-02-12T01:03:56.382Z,8.45
2023-02-12T01:06:23.101Z,7.60
2023-02-12T01:08:53.487Z,7.28
2023-02-12T01:11:20.817Z,7.28
2023-02-12T01:13:47.482Z,8.43
2023-02-12T01:16:20.887Z,8.20
2023-02-12T01:18:55.275Z,8.90
2023-02-12T01:21:29.032Z,8.73
2023-02-12T01:23:56.704Z,7.85
2023-02-12T01:26:25.029Z,8.65
2023-02-12T01:28:57.114Z,8.45
2023-02-12T01:31:30.679Z,8.50
2023-02-12T01:34:00.662Z,7.47
2023-02-12T01:36:30.806Z,7.85
2023-02-12T01:38:59.137Z,8.68
2023-02-12T01:41:36.273Z,7.78
2023-02-12T01:44:21.043Z,8.32
2023-02-12T01:46:55.890Z,7.03
2023-02-12T01:49:35.914Z,8.43
2023-02-12T01:52:24.935Z,8.20
2023-02-12T01:54:58.197Z,8.93
2023-02-12T01:57:28.412Z,7.85
2023-02-12T02:00:00.530Z,8.15
2023-02-12T02:02:28.864Z,8.43
2023-02-12T02:05:04.794Z,9.23
2023-02-12T02:07:31.993Z,8.52
2023-02-12T02:10:00.176Z,7.78
2023-02-12T02:12:46.450Z,8.73
2023-02-12T02:15:13.151Z,8.30
2023-02-12T02:18:09.130Z,9.27
2023-02-12T02:21:31.932Z,9.02
2023-02-12T02:25:04.095Z,8.30
2023-02-12T02:27:52.620Z,7.65
2023-02-12T02:30:36.105Z,8.60
2023-02-12T02:33:52.036Z,9.40
2023-02-12T02:37:00.090Z,8.18
2023-02-12T02:39:51.928Z,8.73
2023-02-12T02:42:41.381Z,9.65
2023-02-12T02:45:34.438Z,8.07
2023-02-12T02:48:26.558Z,10.23
2023-02-12T02:51:08.294Z,8.50
2023-02-12T02:54:00.782Z,8.80
2023-02-12T02:56:30.419Z,8.02
2023-02-12T02:59:17.967Z,8.00
2023-02-12T03:02:03.175Z,8.35
2023-02-12T03:04:52.981Z,7.72
2023-02-12T03:07:37.744Z,8.30
2023-02-12T03:10:22.772Z,6.95
2023-02-12T03:13:12.405Z,8.68
2023-02-12T03:18:57.157Z,7.15
2023-02-12T03:21:43.532Z,7.15
2023-02-12T03:24:46.980Z,6.03
2023-02-12T03:27:29.439Z,5.78
2023-02-12T03:29:58.606Z,6.72
2023-02-12T03:32:58.304Z,6.13
2023-02-12T03:35:44.395Z,6.15
2023-02-12T03:38:37.125Z,6.05
2023-02-12T03:41:26.310Z,7.03
2023-02-12T03:44:14.122Z,7.22
2023-02-12T03:47:19.327Z,6.80
2023-02-12T03:50:35.322Z,6.63
2023-02-12T03:53:02.448Z,6.50
2023-02-12T03:55:36.651Z,7.53
2023-02-12T03:58:11.804Z,7.15
2023-02-12T04:00:43.977Z,8.15
2023-02-12T04:03:14.489Z,6.72
2023-02-12T04:05:44.140Z,7.28
2023-02-12T04:08:14.278Z,5.55
2023-02-12T04:11:35.674Z,7.55
2023-02-12T04:14:37.331Z,6.65
2023-02-12T04:17:41.091Z,6.95
2023-02-12T04:20:47.118Z,7.30
2023-02-12T04:23:55.939Z,8.07
2023-02-12T04:26:52.124Z,7.10
2023-02-12T04:29:52.444Z,7.00
2023-02-12T04:32:51.813Z,7.13
2023-02-12T04:35:31.780Z,7.05
2023-02-12T04:38:28.569Z,7.53
2023-02-12T04:40:56.758Z,8.27
2023-02-12T04:43:36.605Z,7.80
2023-02-12T04:46:11.243Z,7.53
2023-02-12T04:49:03.189Z,7.93
2023-02-12T04:51:29.868Z,7.57
2023-02-12T04:53:56.497Z,8.43
2023-02-12T04:56:23.101Z,6.97
2023-02-12T04:58:53.740Z,6.43
2023-02-12T05:01:22.340Z,7.18
2023-02-12T05:03:53.020Z,7.15
2023-02-12T05:06:19.905Z,8.80
2023-02-12T05:08:46.616Z,7.47
2023-02-12T05:11:28.569Z,7.78
2023-02-12T05:13:55.522Z,8.65
2023-02-12T05:16:23.317Z,7.65
2023-02-12T05:18:53.064Z,7.82
2023-02-12T05:21:27.369Z,7.95
2023-02-12T05:26:23.008Z,9.38
2023-02-12T05:28:52.692Z,9.02
2023-02-12T05:31:21.598Z,8.60
2023-02-12T05:33:53.184Z,8.35
2023-02-12T05:36:23.936Z,8.68
2023-02-12T05:38:58.696Z,9.13
2023-02-12T05:41:26.654Z,10.10
2023-02-12T05:43:54.096Z,8.93
2023-02-12T05:46:22.534Z,9.35
2023-02-12T05:48:51.629Z,9.50
2023-02-12T05:51:26.327Z,9.65
2023-02-12T05:54:01.730Z,10.55
2023-02-12T05:56:45.352Z,9.63
2023-02-12T05:59:23.448Z,10.38
2023-02-12T06:01:52.217Z,9.18
2023-02-12T06:04:27.967Z,9.63
2023-02-12T06:06:56.335Z,9.15
2023-02-12T06:09:24.665Z,9.32
2023-02-12T06:11:52.220Z,9.45
2023-02-12T06:14:20.781Z,8.20
2023-02-12T06:16:52.244Z,9.05
2023-02-12T06:19:20.328Z,8.60
2023-02-12T06:21:55.962Z,11.88
2023-02-12T06:24:25.446Z,8.70
2023-02-12T06:26:52.912Z,9.40
2023-02-12T06:29:22.156Z,8.10
2023-02-12T06:31:49.707Z,8.32
2023-02-12T06:34:19.906Z,8.38
2023-02-12T06:36:48.493Z,7.68
2023-02-12T06:39:18.354Z,7.93
2023-02-12T06:41:50.111Z,7.25
2023-02-12T06:44:16.933Z,7.75
2023-02-12T06:57:32.541Z,9.77
2023-02-12T07:02:42.046Z,9.20
2023-02-12T07:05:08.803Z,9.32
2023-02-12T07:07:35.581Z,9.57
2023-02-12T07:10:03.055Z,10.88
2023-02-12T07:12:29.728Z,9.73
2023-02-12T07:14:56.343Z,11.93
2023-02-12T07:17:23.026Z,12.07
2023-02-12T07:19:49.951Z,11.02
2023-02-12T07:22:19.372Z,10.57
2023-02-12T07:30:19.683Z,16.10
2023-02-12T07:32:46.424Z,13.30
2023-02-12T09:11:26.521Z,15.75
2023-02-12T09:32:48.400Z,16.80
2023-02-12T09:35:15.250Z,13.07
2023-02-12T09:37:44.876Z,13.98
2023-02-12T09:40:59.115Z,13.90
2023-02-12T09:43:45.250Z,11.52
2023-02-12T09:46:49.684Z,12.27
2023-02-12T09:49:50.733Z,12.82
2023-02-12T09:52:24.377Z,10.77
2023-02-12T09:54:55.999Z,12.30
2023-02-12T09:57:35.984Z,10.55
2023-02-12T10:00:31.160Z,11.13
2023-02-12T10:03:11.743Z,11.55
2023-02-12T10:05:52.116Z,10.35
2023-02-12T10:09:12.815Z,13.50
2023-02-12T10:12:04.376Z,10.50
2023-02-12T10:15:15.340Z,9.77
2023-02-12T10:18:21.255Z,9.48
2023-02-12T10:21:30.894Z,9.93
2023-02-12T10:25:06.298Z,11.65
2023-02-12T10:28:02.289Z,10.90
2023-02-12T10:31:00.668Z,10.27
2023-02-12T10:33:38.809Z,8.80
2023-02-12T10:36:45.309Z,8.90
2023-02-12T10:39:14.848Z,8.05
2023-02-12T10:42:16.281Z,8.55
2023-02-12T10:44:43.038Z,7.97
2023-02-12T10:47:26.298Z,9.05
2023-02-12T10:50:04.689Z,8.27
2023-02-12T10:53:03.580Z,8.38
2023-02-12T10:55:41.780Z,8.02
2023-02-12T10:58:24.254Z,7.43
2023-02-12T11:01:02.267Z,8.45
2023-02-12T11:03:42.187Z,7.32
2023-02-12T11:06:28.018Z,7.95
2023-02-12T11:08:57.528Z,8.23
2023-02-12T11:11:38.761Z,7.70
2023-02-12T11:14:30.444Z,5.80
2023-02-12T11:17:02.700Z,7.50
2023-02-12T11:19:34.975Z,6.80
2023-02-12T11:22:14.615Z,6.80
2023-02-12T11:25:01.996Z,7.15
2023-02-12T11:27:33.907Z,7.03
2023-02-12T11:30:24.514Z,6.97
2023-02-12T11:32:52.247Z,7.40
2023-02-12T11:35:29.579Z,6.88
2023-02-12T11:37:59.501Z,6.32
2023-02-12T11:40:33.963Z,5.97
2023-02-12T11:43:07.633Z,8.00
2023-02-12T11:45:56.268Z,7.35
2023-02-12T11:48:41.383Z,5.97
2023-02-12T11:59:38.710Z,5.40
2023-02-12T12:22:44.264Z,5.03
2023-02-12T12:25:36.179Z,6.03
2023-02-12T12:41:15.909Z,5.38
2023-02-12T13:28:38.430Z,4.13
2023-02-12T14:32:01.602Z,11.85
2023-02-12T14:34:38.916Z,11.43
2023-02-12T14:37:38.165Z,12.07
2023-02-12T14:40:33.188Z,12.70
2023-02-12T15:32:51.849Z,5.50
2023-02-12T15:35:45.088Z,5.43
2023-02-12T15:38:43.942Z,6.15
2023-02-12T15:41:33.180Z,5.03
2023-02-12T15:44:23.721Z,4.28
2023-02-12T15:47:17.122Z,4.35
2023-02-12T15:50:00.512Z,4.72
2023-02-12T15:52:52.279Z,5.15
2023-02-12T15:55:42.610Z,4.90
2023-02-12T15:59:07.351Z,4.63
2023-02-12T16:01:37.839Z,5.05
2023-02-12T16:04:19.856Z,6.38
2023-02-12T16:06:53.425Z,6.28
2023-02-12T16:09:35.859Z,5.80
2023-02-12T16:12:13.559Z,5.28
2023-02-12T16:15:03.387Z,5.93
2023-02-12T16:17:38.478Z,6.07
2023-02-12T16:20:24.772Z,6.28
2023-02-12T16:23:09.828Z,5.70
2023-02-12T16:28:32.291Z,6.13
2023-02-12T16:31:18.604Z,6.78
2023-02-12T16:34:04.108Z,5.80
2023-02-12T16:36:35.360Z,5.93
2023-02-12T16:39:30.857Z,6.65
2023-02-12T16:42:00.444Z,6.57
2023-02-12T16:44:37.381Z,6.82
2023-02-12T16:47:15.222Z,6.50
2023-02-12T16:50:03.456Z,6.57
2023-02-12T16:52:45.310Z,6.00
2023-02-12T16:55:20.633Z,6.18
2023-02-12T16:57:47.564Z,7.10
2023-02-12T17:00:20.525Z,6.88
2023-02-12T17:02:58.063Z,5.93
2023-02-12T17:05:24.866Z,6.13
2023-02-12T17:07:51.835Z,6.53
2023-02-12T17:10:22.131Z,6.57
2023-02-12T17:12:53.493Z,7.18
2023-02-12T17:15:38.861Z,7.47
2023-02-12T17:18:05.889Z,6.15
2023-02-12T17:21:47.066Z,7.18
2023-02-12T17:24:26.998Z,6.63
2023-02-12T17:26:55.633Z,7.47
2023-02-12T17:29:26.241Z,6.88
2023-02-12T17:31:55.297Z,7.68
2023-02-12T17:34:50.775Z,5.95
2023-02-12T17:37:27.336Z,7.18
2023-02-12T17:40:04.032Z,7.63
2023-02-12T17:42:36.461Z,7.25
2023-02-12T17:45:07.356Z,7.80
2023-02-12T17:47:54.196Z,7.45
2023-02-12T17:50:21.199Z,7.25
2023-02-12T17:52:55.395Z,7.50
2023-02-12T17:55:43.358Z,8.80
2023-02-12T17:58:10.063Z,9.20
2023-02-12T18:00:46.408Z,9.90
2023-02-12T18:03:13.024Z,9.07
2023-02-12T18:05:53.452Z,8.48
2023-02-12T18:08:20.356Z,9.40
2023-02-12T18:10:56.428Z,8.02
2023-02-12T18:13:34.787Z,8.27
2023-02-12T18:16:11.611Z,9.23
2023-02-12T18:21:35.716Z,8.43
2023-02-12T18:24:04.778Z,9.77
2023-02-12T18:26:57.782Z,9.45
2023-02-12T18:29:27.415Z,8.77
2023-02-12T18:31:55.351Z,9.20
2023-02-12T18:34:22.214Z,9.30
2023-02-12T18:36:55.343Z,9.23
2023-02-12T18:39:22.070Z,9.65
2023-02-12T18:41:54.338Z,9.55
2023-02-12T18:44:21.117Z,10.30
2023-02-12T18:46:56.915Z,10.02
2023-02-12T18:49:23.554Z,9.38
2023-02-12T18:51:59.815Z,9.48
2023-02-12T18:54:26.794Z,9.23
2023-02-12T18:56:58.588Z,10.15
2023-02-12T18:59:27.242Z,10.10
2023-02-12T19:01:55.290Z,9.25
2023-02-12T19:07:08.501Z,10.07
2023-02-12T19:26:20.063Z,9.00
2023-02-12T20:02:26.716Z,11.25
2023-02-12T20:05:05.287Z,11.68
2023-02-12T20:18:42.407Z,10.80
2023-02-12T20:32:11.035Z,13.18
2023-02-12T21:27:14.849Z,10.27
2023-02-12T22:47:09.630Z,10.80
2023-02-12T22:49:36.326Z,10.23
2023-02-12T22:52:06.136Z,10.52
2023-02-12T23:08:45.747Z,8.93
2023-02-12T23:11:12.497Z,9.55
2023-02-12T23:13:45.223Z,8.95
2023-02-12T23:16:19.039Z,10.07
2023-02-12T23:18:52.046Z,9.07
2023-02-12T23:21:21.885Z,8.40
2023-02-12T23:23:51.697Z,8.60
2023-02-12T23:26:18.383Z,9.02
2023-02-12T23:28:50.660Z,8.68
2023-02-12T23:31:23.899Z,8.77
2023-02-12T23:33:56.797Z,8.30
2023-02-12T23:36:23.418Z,8.00
2023-02-12T23:38:53.276Z,8.82
2023-02-12T23:41:22.316Z,9.13
2023-02-12T23:43:57.665Z,8.20
2023-02-12T23:46:24.472Z,9.82
2023-02-12T23:48:51.189Z,8.13
2023-02-12T23:51:21.052Z,9.18
2023-02-12T23:53:49.592Z,9.73
2023-02-12T23:56:16.342Z,9.43
2023-02-12T23:58:50.822Z,9.88
